Time;durP1;ratioP1;P1;durP2;ratioP2;P2;SDS_P1;SDS_P2;PMS_P1;PMS_P2;Temp;Humidity;BMP_temperature;BMP_pressure;BME280_temperature;BME280_humidity;BME280_pressure;Samples;Min_cycle;Max_cycle;Signal;HPM_P1;HPM_P2
2023/01/31 00:01:40;;;;;;;19.40;4.35;;;;;;;4.08;76.86;102253.09;3604232;39;20078;-62
2023/01/31 00:04:11;;;;;;;15.30;4.25;;;;;;;4.03;76.61;102250.50;3608546;39;20059;-64
2023/01/31 00:06:41;;;;;;;16.00;3.55;;;;;;;4.00;76.87;102250.53;3605650;39;20062;-63
2023/01/31 00:09:10;;;;;;;20.05;4.25;;;;;;;3.99;77.12;102254.09;3607687;39;20063;-63
2023/01/31 00:11:36;;;;;;;12.85;4.00;;;;;;;3.93;77.58;102252.41;3607481;39;20055;-63
2023/01/31 00:14:04;;;;;;;14.75;3.28;;;;;;;3.97;78.11;102265.66;3606310;39;20068;-63
2023/01/31 00:16:30;;;;;;;19.20;3.78;;;;;;;3.94;77.85;102262.13;3605848;39;20065;-62
2023/01/31 00:18:56;;;;;;;19.45;3.30;;;;;;;3.90;77.35;102259.50;3609062;39;20062;-63
2023/01/31 00:21:26;;;;;;;10.98;3.60;;;;;;;3.89;77.86;102269.28;3604024;39;20051;-63
2023/01/31 00:23:54;;;;;;;17.02;3.03;;;;;;;3.90;77.85;102276.38;3603580;39;20047;-63
2023/01/31 00:26:31;;;;;;;20.00;4.80;;;;;;;3.86;78.16;102258.66;3605966;39;20124;-63
2023/01/31 00:29:01;;;;;;;12.45;3.35;;;;;;;3.89;78.12;102269.28;3602551;39;20050;-63
2023/01/31 00:31:30;;;;;;;18.75;3.67;;;;;;;3.87;78.37;102265.75;3607438;39;20055;-63
2023/01/31 00:33:57;;;;;;;23.50;3.80;;;;;;;3.91;78.03;102272.81;3605298;39;20047;-63
2023/01/31 00:36:30;;;;;;;18.60;4.35;;;;;;;3.93;78.35;102265.69;3604986;39;20124;-63
2023/01/31 00:38:59;;;;;;;14.93;3.83;;;;;;;3.95;78.35;102266.53;3605396;39;20046;-63
2023/01/31 00:41:28;;;;;;;18.10;4.22;;;;;;;3.99;78.00;102254.09;3605988;39;20345;-63
2023/01/31 00:43:54;;;;;;;20.17;4.22;;;;;;;4.03;77.79;102254.91;3606088;39;20266;-63
2023/01/31 00:46:21;;;;;;;18.73;3.30;;;;;;;3.73;77.54;102210.03;3610570;39;20097;-64
2023/01/31 00:48:47;;;;;;;18.95;3.95;;;;;;;4.04;78.06;102256.72;3603562;39;20050;-63
2023/01/31 00:51:13;;;;;;;20.55;3.95;;;;;;;4.04;78.28;102248.72;3603247;39;20333;-63
2023/01/31 00:53:38;;;;;;;27.23;7.97;;;;;;;4.00;77.68;102239.91;3604661;39;20043;-62
2023/01/31 00:56:09;;;;;;;20.65;4.82;;;;;;;4.05;78.05;102254.00;3605839;39;20067;-63
2023/01/31 00:58:38;;;;;;;15.50;3.58;;;;;;;4.05;77.89;102255.78;3607027;39;20048;-62
2023/01/31 01:01:22;;;;;;;18.38;3.72;;;;;;;4.03;77.78;102245.19;3607617;39;20063;-63
2023/01/31 01:03:48;;;;;;;22.52;4.60;;;;;;;4.08;78.47;102253.97;3603154;39;20374;-63
2023/01/31 01:06:14;;;;;;;24.75;4.95;;;;;;;4.09;78.36;102237.13;3604914;39;20127;-63
2023/01/31 01:08:41;;;;;;;23.88;4.13;;;;;;;4.12;78.19;102249.50;3605780;39;20320;-62
2023/01/31 01:11:15;;;;;;;18.55;5.15;;;;;;;4.12;78.21;102234.44;3606348;39;20051;-62
2023/01/31 01:13:41;;;;;;;;;;;;;;;3.87;77.91;102201.00;3606215;39;21206;-62
2023/01/31 01:16:14;;;;;;;18.15;5.13;;;;;;;4.08;77.97;102239.78;3604769;39;20197;-63
2023/01/31 01:18:43;;;;;;;21.65;4.80;;;;;;;4.06;78.56;102222.97;3603638;39;20056;-63
2023/01/31 01:21:14;;;;;;;16.70;5.30;;;;;;;4.07;78.05;102225.63;3605391;39;20112;-63
2023/01/31 01:23:41;;;;;;;22.20;5.35;;;;;;;4.08;78.35;102223.84;3606829;39;20099;-63
2023/01/31 01:26:17;;;;;;;21.58;5.78;;;;;;;4.10;78.13;102211.41;3605865;39;20058;-63
2023/01/31 01:28:44;;;;;;;25.35;5.75;;;;;;;4.09;78.34;102206.97;3605685;39;20059;-63
2023/01/31 01:31:14;;;;;;;20.35;5.55;;;;;;;4.09;77.97;102209.63;3607436;39;20063;-62
2023/01/31 01:33:42;;;;;;;17.38;5.43;;;;;;;4.11;78.22;102210.50;3603162;39;20309;-63
2023/01/31 01:36:14;;;;;;;18.92;6.40;;;;;;;4.08;77.44;102206.09;3605332;39;20136;-63
2023/01/31 01:38:40;;;;;;;16.73;5.07;;;;;;;4.07;77.52;102208.78;3605672;39;20047;-63
2023/01/31 01:41:08;;;;;;;22.92;5.50;;;;;;;4.04;78.08;102200.84;3606204;39;20062;-63
2023/01/31 01:44:28;;;;;;;20.80;5.60;;;;;;;4.00;78.71;102209.75;3605894;39;20062;-62
2023/01/31 01:46:54;;;;;;;18.50;5.50;;;;;;;3.99;78.67;102207.97;3594883;39;20055;-63
2023/01/31 01:49:36;;;;;;;23.45;5.45;;;;;;;3.97;78.17;102204.47;3603064;39;20054;-63
2023/01/31 01:52:10;;;;;;;20.50;5.18;;;;;;;3.97;78.36;102208.00;3603894;39;20111;-63
2023/01/31 01:54:49;;;;;;;24.50;6.50;;;;;;;3.93;78.15;102201.84;3605080;39;20059;-63
2023/01/31 01:57:24;;;;;;;22.52;5.93;;;;;;;3.90;78.33;102196.56;3608122;39;20055;-62
2023/01/31 02:00:14;;;;;;;19.77;5.80;;;;;;;3.89;78.67;102199.22;3605755;39;20055;-63
2023/01/31 02:02:44;;;;;;;20.52;6.30;;;;;;;3.87;78.60;102195.69;3604214;39;20051;-63
2023/01/31 02:05:18;;;;;;;25.15;6.20;;;;;;;3.86;79.10;102196.59;3600577;39;20070;-63
2023/01/31 02:07:45;;;;;;;18.33;5.50;;;;;;;3.84;79.25;102187.78;3606159;39;20054;-63
2023/01/31 02:10:18;;;;;;;21.30;5.68;;;;;;;3.83;78.65;102199.31;3605747;39;20051;-63
2023/01/31 02:12:45;;;;;;;23.33;6.30;;;;;;;3.81;78.82;102211.75;3604099;39;20166;-62
2023/01/31 02:15:10;;;;;;;20.42;6.63;;;;;;;3.81;79.23;102206.44;3606764;39;20051;-63
2023/01/31 02:17:37;;;;;;;27.05;7.57;;;;;;;3.59;79.76;102168.56;3605457;39;20279;-63
2023/01/31 02:20:53;;;;;;;19.50;6.38;;;;;;;3.76;79.74;102211.78;3606922;39;20059;-63
2023/01/31 02:23:59;;;;;;;22.45;6.18;;;;;;;3.76;79.48;102203.81;3576650;40;20056;-62
2023/01/31 02:26:52;;;;;;;27.65;7.18;;;;;;;3.77;79.86;102216.19;3602739;39;20051;-62
2023/01/31 02:29:48;;;;;;;22.20;6.43;;;;;;;3.75;80.09;102215.34;3603599;39;20375;-63
2023/01/31 02:32:55;;;;;;;18.77;6.65;;;;;;;3.75;80.10;102217.16;3609773;39;20284;-62
2023/01/31 02:35:52;;;;;;;22.98;7.05;;;;;;;3.73;80.09;102219.81;3602703;39;20109;-62
2023/01/31 02:38:47;;;;;;;21.38;6.53;;;;;;;3.73;80.46;102220.69;3605214;39;20081;-63
2023/01/31 02:41:35;;;;;;;23.50;7.18;;;;;;;3.69;80.41;102218.09;3604190;39;20042;-63
2023/01/31 02:47:33;;;;;;;18.58;6.85;;;;;;;3.68;80.93;102200.38;3605549;39;20057;-62
2023/01/31 02:50:26;;;;;;;23.27;7.53;;;;;;;3.69;80.70;102207.44;3601162;39;20110;-62
2023/01/31 02:53:05;;;;;;;19.35;7.35;;;;;;;3.73;80.56;102204.72;3600844;39;20054;-62
2023/01/31 02:58:38;;;;;;;25.63;7.60;;;;;;;3.80;80.55;102210.84;3605716;39;20046;-62
2023/01/31 03:01:09;;;;;;;26.33;8.00;;;;;;;3.82;80.24;102203.75;3606127;39;20665;-62
2023/01/31 03:03:37;;;;;;;25.00;8.98;;;;;;;3.80;81.13;102197.56;3603057;39;20158;-62
2023/01/31 03:06:24;;;;;;;31.52;8.85;;;;;;;3.89;80.98;102216.06;3604094;39;20141;-63
2023/01/31 03:09:05;;;;;;;26.83;8.20;;;;;;;3.76;80.55;102187.84;3605804;39;20406;-62
2023/01/31 03:12:07;;;;;;;21.20;8.13;;;;;;;3.92;80.82;102204.50;3605305;39;20061;-62
2023/01/31 03:14:47;;;;;;;17.67;7.85;;;;;;;3.89;79.92;102200.09;3603922;39;20099;-62
2023/01/31 03:17:32;;;;;;;25.63;9.65;;;;;;;3.90;80.42;102199.22;3603876;39;20086;-62
2023/01/31 03:20:16;;;;;;;26.75;8.48;;;;;;;3.93;80.86;102193.88;3603418;39;20059;-62
2023/01/31 03:23:07;;;;;;;27.25;9.13;;;;;;;3.93;80.50;102185.91;3603261;39;20099;-63
2023/01/31 03:25:37;;;;;;;24.10;8.65;;;;;;;3.95;81.05;102189.38;3604981;39;20398;-62
2023/01/31 03:28:13;;;;;;;25.08;9.48;;;;;;;3.88;80.74;102171.75;3603996;39;20113;-62
2023/01/31 03:30:50;;;;;;;28.13;8.93;;;;;;;3.94;80.60;102179.66;3604145;39;20460;-62
2023/01/31 03:33:28;;;;;;;22.58;8.48;;;;;;;4.00;81.15;102188.47;3604098;39;20055;-63
2023/01/31 03:36:48;;;;;;;30.60;10.27;;;;;;;3.99;81.23;102197.34;3604595;39;20221;-63
2023/01/31 03:39:43;;;;;;;20.23;8.82;;;;;;;4.00;80.92;102185.81;3602411;39;20382;-63
2023/01/31 03:42:41;;;;;;;23.77;8.70;;;;;;;4.03;81.61;102185.75;3605815;39;20058;-63
2023/01/31 03:45:31;;;;;;;30.23;10.75;;;;;;;4.04;81.60;102177.75;3603456;39;20432;-63
2023/01/31 03:48:02;;;;;;;28.38;10.18;;;;;;;4.06;81.57;102169.75;3602649;39;20070;-63
2023/01/31 03:50:32;;;;;;;26.65;9.57;;;;;;;4.04;81.53;102171.56;3604442;39;20061;-63
2023/01/31 03:53:18;;;;;;;28.80;10.27;;;;;;;4.06;81.85;102169.75;3604869;39;20147;-64
2023/01/31 03:56:12;;;;;;;31.13;10.20;;;;;;;4.08;82.07;102167.94;3602408;39;20104;-63
2023/01/31 03:58:49;;;;;;;29.70;10.38;;;;;;;4.09;82.38;102167.03;3603647;39;20051;-64
2023/01/31 04:01:19;;;;;;;28.98;10.73;;;;;;;4.13;82.61;102163.47;3606664;39;20051;-64
2023/01/31 04:04:00;;;;;;;29.30;10.00;;;;;;;4.11;82.07;102162.59;3604729;39;20195;-64
2023/01/31 04:06:27;;;;;;;22.35;10.13;;;;;;;4.12;82.46;102159.94;3601904;39;20058;-64
2023/01/31 04:08:53;;;;;;;27.55;9.88;;;;;;;4.14;81.96;102166.09;3604143;39;20075;-63
2023/01/31 04:11:26;;;;;;;32.50;11.25;;;;;;;4.14;82.30;102162.56;3601266;39;20422;-63
2023/01/31 04:13:53;;;;;;;31.48;10.77;;;;;;;4.15;81.75;102174.94;3603047;39;20047;-64
2023/01/31 04:16:19;;;;;;;30.05;11.02;;;;;;;4.11;82.53;102162.59;3605472;39;20090;-64
2023/01/31 04:18:44;;;;;;;26.05;10.25;;;;;;;4.12;82.11;102164.34;3602664;39;20051;-64
2023/01/31 04:21:10;;;;;;;29.98;11.68;;;;;;;4.12;82.17;102159.03;3606010;39;20411;-64
2023/01/31 04:23:35;;;;;;;28.35;10.40;;;;;;;4.08;82.17;102157.31;3605315;39;20294;-63
2023/01/31 04:26:01;;;;;;;25.77;10.25;;;;;;;4.04;82.01;102152.94;3604134;39;20360;-63
2023/01/31 04:28:27;;;;;;;28.30;10.73;;;;;;;4.10;82.67;102158.19;3603463;39;20066;-63
2023/01/31 04:30:54;;;;;;;28.27;10.80;;;;;;;3.99;82.68;102138.81;3604871;39;20330;-62
2023/01/31 04:33:19;;;;;;;30.10;11.85;;;;;;;4.09;82.34;102151.97;3596821;39;20380;-62
2023/01/31 04:35:45;;;;;;;27.30;10.75;;;;;;;3.99;82.65;102130.81;3605152;39;20066;-62
2023/01/31 04:38:11;;;;;;;27.33;10.68;;;;;;;4.05;82.72;102144.03;3590566;39;20074;-63
2023/01/31 04:40:36;;;;;;;25.38;10.02;;;;;;;4.00;82.65;102137.94;3602077;39;20063;-63
2023/01/31 04:43:02;;;;;;;32.15;12.10;;;;;;;4.05;82.11;102142.25;3602185;39;20055;-63
2023/01/31 04:45:27;;;;;;;26.60;10.38;;;;;;;4.04;82.35;102150.28;3600863;39;20059;-63
2023/01/31 04:47:53;;;;;;;23.35;10.20;;;;;;;4.03;82.38;102156.47;3601621;39;20101;-63
2023/01/31 04:50:19;;;;;;;22.33;10.52;;;;;;;4.01;82.54;102151.19;3605057;39;20350;-62
2023/01/31 04:52:48;;;;;;;23.35;11.18;;;;;;;3.99;82.15;102146.78;3604472;39;20051;-63
2023/01/31 04:55:14;;;;;;;32.05;10.93;;;;;;;3.98;82.73;102142.38;3604287;39;20267;-63
2023/01/31 04:57:39;;;;;;;24.75;11.05;;;;;;;3.95;82.67;102144.16;3606864;39;20075;-63
2023/01/31 05:00:06;;;;;;;24.02;10.48;;;;;;;3.95;82.25;102138.84;3609217;39;20047;-62
2023/01/31 05:02:31;;;;;;;27.60;10.60;;;;;;;3.90;83.11;102132.72;3603184;39;20043;-63
2023/01/31 05:04:57;;;;;;;29.27;10.55;;;;;;;3.95;82.73;102114.91;3605037;39;20113;-63
2023/01/31 05:07:23;;;;;;;26.98;10.43;;;;;;;3.93;82.83;102122.03;3603572;39;20058;-63
2023/01/31 05:09:48;;;;;;;23.58;11.07;;;;;;;4.00;83.46;102116.66;3604065;39;20513;-63
2023/01/31 05:12:14;;;;;;;28.63;11.05;;;;;;;4.04;82.83;102105.94;3604426;39;20412;-62
2023/01/31 05:14:39;;;;;;;22.60;10.13;;;;;;;4.07;83.07;102113.88;3606805;39;20051;-62
2023/01/31 05:17:05;;;;;;;27.40;10.63;;;;;;;4.05;82.59;102105.00;3607706;39;20439;-63
2023/01/31 05:19:31;;;;;;;23.65;10.48;;;;;;;4.13;82.68;102107.59;3609622;39;20050;-63
2023/01/31 05:21:59;;;;;;;24.25;9.10;;;;;;;4.17;82.58;102110.16;3604405;39;20527;-63
2023/01/31 05:24:35;;;;;;;26.45;10.48;;;;;;;3.84;82.28;102037.06;3606106;39;20069;-64
2023/01/31 05:27:02;;;;;;;29.33;12.32;;;;;;;4.27;82.35;102102.91;3606072;39;20483;-63
2023/01/31 05:29:31;;;;;;;25.33;10.85;;;;;;;4.05;81.76;102062.44;3607104;39;20058;-63
2023/01/31 05:32:01;;;;;;;30.80;11.48;;;;;;;4.06;81.83;102048.25;3606300;39;20334;-63
2023/01/31 05:34:32;;;;;;;25.02;10.77;;;;;;;4.35;81.75;102090.38;3605089;39;20054;-63
2023/01/31 05:36:58;;;;;;;33.05;11.43;;;;;;;4.34;81.38;102103.69;3602682;39;20044;-63
2023/01/31 05:39:24;;;;;;;24.42;8.90;;;;;;;4.36;81.48;102101.91;3607497;39;20316;-63
2023/01/31 05:41:51;;;;;;;31.23;10.90;;;;;;;4.32;81.24;102077.13;3601753;39;20064;-63
2023/01/31 05:44:17;;;;;;;24.80;10.15;;;;;;;4.35;81.15;102079.72;3603647;39;20062;-62
2023/01/31 05:46:44;;;;;;;21.63;9.20;;;;;;;4.27;80.55;102065.66;3605261;39;20098;-63
2023/01/31 05:49:11;;;;;;;22.40;9.75;;;;;;;4.22;80.51;102054.22;3605715;39;20051;-63
2023/01/31 05:51:37;;;;;;;27.45;9.70;;;;;;;4.37;80.21;102093.88;3606469;39;20059;-65
2023/01/31 05:54:03;;;;;;;23.65;9.15;;;;;;;4.40;80.73;102093.84;3603148;39;20047;-63
2023/01/31 05:56:29;;;;;;;23.35;9.10;;;;;;;4.43;80.58;102080.47;3605582;39;20042;-63
2023/01/31 05:58:55;;;;;;;25.23;9.32;;;;;;;4.46;80.15;102078.69;3605929;39;20071;-63
2023/01/31 06:01:25;;;;;;;21.10;8.90;;;;;;;4.48;80.03;102077.75;3604057;39;20081;-63
2023/01/31 06:03:51;;;;;;;22.00;8.63;;;;;;;4.52;80.02;102083.91;3602971;39;20327;-63
2023/01/31 06:06:18;;;;;;;24.25;9.13;;;;;;;4.54;79.36;102082.09;3606225;39;20051;-63
2023/01/31 06:08:43;;;;;;;30.45;9.38;;;;;;;4.42;79.53;102067.19;3608421;39;20147;-63
2023/01/31 06:11:11;;;;;;;23.67;8.75;;;;;;;4.58;79.52;102094.44;3609078;39;20381;-63
2023/01/31 06:13:39;;;;;;;21.10;8.57;;;;;;;4.57;79.34;102092.72;3606360;39;20055;-63
2023/01/31 06:16:05;;;;;;;22.90;8.93;;;;;;;4.61;78.96;102094.41;3603573;39;20096;-63
2023/01/31 06:18:31;;;;;;;23.77;8.15;;;;;;;4.55;78.92;102075.88;3602346;39;20060;-62
2023/01/31 06:20:57;;;;;;;25.52;9.30;;;;;;;4.63;78.93;102089.91;3604329;39;20063;-63
2023/01/31 06:23:23;;;;;;;25.33;8.63;;;;;;;4.65;78.63;102080.13;3607776;39;20047;-63
2023/01/31 06:25:51;;;;;;;27.65;8.05;;;;;;;4.70;78.99;102080.94;3606268;39;20094;-63
2023/01/31 06:28:17;;;;;;;20.05;8.07;;;;;;;4.69;78.32;102089.81;3603882;39;20055;-63
2023/01/31 06:30:43;;;;;;;26.45;7.90;;;;;;;4.70;78.17;102088.06;3604302;39;20043;-63
2023/01/31 06:33:10;;;;;;;19.27;7.97;;;;;;;4.67;78.42;102074.78;3603999;39;20053;-63
2023/01/31 06:35:36;;;;;;;22.85;7.57;;;;;;;4.76;78.01;102090.63;3605213;39;20413;-63
2023/01/31 06:38:02;;;;;;;21.48;8.10;;;;;;;4.73;78.20;102080.88;3605544;39;20275;-64
2023/01/31 06:40:27;;;;;;;22.40;7.78;;;;;;;4.81;77.91;102070.09;3604706;39;20063;-63
2023/01/31 06:42:53;;;;;;;16.83;7.03;;;;;;;4.58;77.97;102039.41;3601393;39;20070;-64
2023/01/31 06:45:19;;;;;;;23.58;7.75;;;;;;;4.80;76.91;102079.84;3602773;39;20052;-63
2023/01/31 06:47:45;;;;;;;22.25;8.50;;;;;;;4.82;77.93;102078.06;3603993;39;20050;-63
2023/01/31 06:50:12;;;;;;;23.60;8.57;;;;;;;4.85;77.75;102064.69;3601444;39;20313;-64
2023/01/31 06:52:39;;;;;;;27.45;8.13;;;;;;;4.88;78.24;102072.63;3605786;39;20046;-63
2023/01/31 06:55:05;;;;;;;20.92;7.05;;;;;;;4.93;77.87;102069.88;3603399;39;20175;-64
2023/01/31 06:57:31;;;;;;;21.80;8.10;;;;;;;4.92;77.78;102062.78;3604799;39;20345;-63
2023/01/31 06:59:57;;;;;;;19.17;7.05;;;;;;;4.97;77.64;102076.88;3604006;39;20356;-63
2023/01/31 07:02:23;;;;;;;18.77;7.13;;;;;;;4.98;77.44;102068.00;3605884;39;20058;-64
2023/01/31 07:04:48;;;;;;;22.02;7.30;;;;;;;4.95;77.38;102061.81;3605617;39;20054;-63
2023/01/31 07:07:14;;;;;;;22.35;7.40;;;;;;;5.02;77.36;102068.81;3606062;39;20412;-63
2023/01/31 07:09:39;;;;;;;21.15;7.00;;;;;;;5.01;77.45;102064.38;3603949;39;20070;-63
2023/01/31 07:12:05;;;;;;;21.45;7.60;;;;;;;5.03;77.20;102068.78;3600424;39;20104;-63
2023/01/31 07:14:31;;;;;;;27.02;7.70;;;;;;;5.08;77.29;102058.03;3602783;39;20070;-63
2023/01/31 07:16:56;;;;;;;23.10;7.32;;;;;;;5.07;77.22;102069.59;3602346;39;20075;-64
2023/01/31 07:19:22;;;;;;;31.33;11.55;;;;;;;5.09;77.01;102063.34;3603980;39;20280;-64
2023/01/31 07:21:48;;;;;;;20.77;9.15;;;;;;;5.11;77.41;102052.66;3602011;39;20298;-63
2023/01/31 07:24:14;;;;;;;16.85;7.95;;;;;;;5.13;77.44;102056.16;3604562;39;21682;-63
2023/01/31 07:26:41;;;;;;;20.33;7.82;;;;;;;5.16;77.82;102056.09;3604501;39;20361;-63
2023/01/31 07:29:07;;;;;;;17.50;6.97;;;;;;;5.18;77.36;102056.94;3604008;39;20035;-63
2023/01/31 07:31:33;;;;;;;21.35;7.22;;;;;;;5.23;76.57;102057.75;3604588;39;20420;-64
2023/01/31 07:33:59;;;;;;;15.75;6.90;;;;;;;5.28;77.21;102038.97;3601682;39;20073;-63
2023/01/31 07:36:26;;;;;;;21.25;6.80;;;;;;;5.32;76.66;102049.53;3603195;39;20382;-63
2023/01/31 07:38:57;;;;;;;19.20;6.82;;;;;;;5.37;76.55;102043.25;3603437;39;20051;-63
2023/01/31 07:41:23;;;;;;;22.30;6.60;;;;;;;5.42;76.50;102036.03;3607780;39;20717;-63
2023/01/31 07:43:50;;;;;;;20.17;6.80;;;;;;;5.43;76.37;102041.34;3604052;39;20098;-63
2023/01/31 07:46:17;;;;;;;19.75;6.22;;;;;;;5.32;76.31;102006.00;3601810;39;20434;-63
2023/01/31 07:48:43;;;;;;;17.13;6.35;;;;;;;5.51;76.17;102036.69;3604212;39;20556;-63
2023/01/31 07:51:10;;;;;;;14.02;5.88;;;;;;;5.55;75.64;102034.84;3605418;39;20055;-63
2023/01/31 07:53:42;;;;;;;20.05;6.45;;;;;;;5.59;75.59;102024.09;3605266;39;20059;-63
2023/01/31 07:56:19;;;;;;;22.50;6.90;;;;;;;5.60;75.93;102030.31;3604933;39;20055;-63
2023/01/31 07:58:47;;;;;;;15.70;6.07;;;;;;;5.63;75.48;102021.34;3604269;39;20109;-63
2023/01/31 08:04:14;;;;;;;17.20;6.07;;;;;;;5.69;75.72;102013.22;3601500;39;20058;-63
2023/01/31 08:06:43;;;;;;;19.02;6.60;;;;;;;5.60;75.71;102000.97;3601371;39;20621;-63
2023/01/31 08:09:09;;;;;;;16.70;5.65;;;;;;;5.72;75.23;102008.69;3602485;39;20408;-63
2023/01/31 08:11:36;;;;;;;14.70;5.95;;;;;;;5.74;75.34;102012.22;3603647;39;20062;-63
2023/01/31 08:14:01;;;;;;;16.13;5.70;;;;;;;5.75;75.27;102003.28;3602150;39;20785;-63
2023/01/31 08:16:28;;;;;;;18.15;6.15;;;;;;;5.79;74.86;101999.63;3603013;39;20077;-63
2023/01/31 08:18:54;;;;;;;23.10;6.72;;;;;;;5.80;75.20;102005.84;3601615;39;20063;-63
2023/01/31 08:21:20;;;;;;;20.42;6.45;;;;;;;5.84;74.86;102006.66;3601886;39;20059;-63
2023/01/31 08:23:46;;;;;;;17.75;5.65;;;;;;;5.82;75.18;101998.69;3601724;39;20321;-64
2023/01/31 08:26:18;;;;;;;14.52;5.30;;;;;;;5.87;74.82;102012.81;3605333;39;20104;-63
2023/01/31 08:28:46;;;;;;;14.95;5.43;;;;;;;5.87;75.16;102006.56;3604826;39;20127;-63
2023/01/31 08:31:22;;;;;;;17.25;5.40;;;;;;;5.72;75.04;101984.69;3604623;39;20441;-62
2023/01/31 08:33:50;;;;;;;15.60;5.88;;;;;;;5.95;74.49;101991.31;3598328;39;20071;-62
2023/01/31 08:36:20;;;;;;;16.92;5.25;;;;;;;5.98;74.50;101988.56;3605576;39;20055;-63
2023/01/31 08:38:47;;;;;;;14.75;5.80;;;;;;;6.01;75.28;101984.03;3605210;39;20063;-63
2023/01/31 08:41:14;;;;;;;16.35;4.93;;;;;;;6.03;74.87;101981.34;3605522;39;20063;-63
2023/01/31 08:43:39;;;;;;;12.43;5.35;;;;;;;6.12;74.34;101985.53;3604430;39;20071;-63
2023/01/31 08:46:06;;;;;;;20.08;6.07;;;;;;;6.12;74.81;101969.53;3605394;39;20051;-63
2023/01/31 08:48:33;;;;;;;21.00;6.10;;;;;;;6.17;75.09;101968.50;3606966;39;20124;-63
2023/01/31 08:51:05;;;;;;;22.45;5.35;;;;;;;6.20;74.73;101984.44;3606211;39;20059;-63
2023/01/31 08:53:32;;;;;;;18.70;5.95;;;;;;;6.26;74.29;101973.63;3607460;39;20128;-63
2023/01/31 08:56:00;;;;;;;18.35;5.28;;;;;;;6.30;73.98;101973.53;3608809;39;20063;-63
2023/01/31 08:58:27;;;;;;;14.77;5.40;;;;;;;6.33;74.59;101968.13;3605629;39;20063;-62
2023/01/31 09:00:53;;;;;;;18.45;6.05;;;;;;;6.35;74.08;101968.97;3601652;39;20534;-63
2023/01/31 09:03:19;;;;;;;15.00;4.93;;;;;;;6.38;73.79;101955.53;3604068;39;20350;-63
2023/01/31 09:05:44;;;;;;;17.48;5.13;;;;;;;6.34;74.45;101937.81;3605317;39;20086;-63
2023/01/31 09:08:11;;;;;;;14.95;5.30;;;;;;;6.50;74.32;101955.19;3603610;39;20122;-62
2023/01/31 09:10:37;;;;;;;17.30;5.60;;;;;;;6.51;74.02;101946.28;3604064;39;20104;-63
2023/01/31 09:13:03;;;;;;;23.27;6.03;;;;;;;6.57;74.39;101945.25;3603154;39;20083;-63
2023/01/31 09:15:29;;;;;;;17.30;5.00;;;;;;;6.59;74.38;101954.94;3602865;39;20066;-63
2023/01/31 09:17:55;;;;;;;15.32;4.70;;;;;;;6.66;74.64;101953.88;3602456;39;20051;-63
2023/01/31 09:20:20;;;;;;;14.23;4.90;;;;;;;6.69;73.81;101960.91;3597112;39;20459;-63
2023/01/31 09:22:46;;;;;;;17.02;4.65;;;;;;;6.69;73.85;101956.47;3603822;39;20572;-63
2023/01/31 09:25:12;;;;;;;16.52;5.05;;;;;;;6.32;73.95;101883.59;3607511;39;20059;-64
2023/01/31 09:27:38;;;;;;;14.48;4.85;;;;;;;6.78;74.01;101941.94;3605615;39;20055;-64
2023/01/31 09:30:07;;;;;;;15.68;4.40;;;;;;;6.84;73.73;101927.53;3604382;39;20344;-62
2023/01/31 09:32:33;;;;;;;14.52;4.50;;;;;;;6.89;73.98;101923.81;3603115;39;20453;-62
2023/01/31 09:34:59;;;;;;;19.67;5.25;;;;;;;7.01;73.60;101933.28;3604608;39;20051;-63
2023/01/31 09:37:27;;;;;;;18.25;4.63;;;;;;;6.97;73.21;101902.19;3602245;39;20054;-63
2023/01/31 09:39:53;;;;;;;15.70;4.32;;;;;;;7.21;73.37;101928.22;3605355;39;20132;-63
2023/01/31 09:42:34;;;;;;;18.65;5.05;;;;;;;7.31;72.59;101927.94;3602557;39;20059;-62
2023/01/31 09:45:13;;;;;;;12.45;4.63;;;;;;;7.41;72.68;101935.63;3603198;39;20075;-63
2023/01/31 09:47:49;;;;;;;13.00;4.70;;;;;;;7.46;71.85;101940.84;3603469;39;20094;-62
2023/01/31 09:50:48;;;;;;;14.63;5.07;;;;;;;7.58;72.32;101936.88;3605809;39;20052;-62
2023/01/31 09:53:20;;;;;;;17.80;5.03;;;;;;;7.76;72.17;101924.72;3603286;39;20128;-62
2023/01/31 09:56:10;;;;;;;20.98;5.13;;;;;;;7.92;70.97;101923.31;3605097;39;20403;-62
2023/01/31 09:58:45;;;;;;;18.25;5.32;;;;;;;8.03;70.92;101939.91;3603358;39;20044;-64
2023/01/31 10:01:47;;;;;;;12.60;4.07;;;;;;;8.16;69.89;101931.47;3607493;39;20095;-62
2023/01/31 10:04:32;;;;;;;17.48;4.68;;;;;;;8.30;70.44;101931.84;3606012;39;20043;-64
2023/01/31 10:07:15;;;;;;;20.13;5.35;;;;;;;8.28;69.83;101933.72;3606027;39;20066;-62
2023/01/31 10:10:01;;;;;;;15.98;5.03;;;;;;;8.16;69.60;101939.50;3606672;39;20073;-63
2023/01/31 10:12:42;;;;;;;16.20;5.40;;;;;;;7.89;69.94;101912.69;3606729;39;20040;-63
2023/01/31 10:15:38;;;;;;;19.10;4.97;;;;;;;7.95;70.50;101914.28;3604918;39;20485;-62
2023/01/31 10:18:48;;;;;;;19.00;6.00;;;;;;;7.94;70.75;101940.19;3606829;39;20382;-62
2023/01/31 10:21:28;;;;;;;15.50;5.53;;;;;;;7.93;71.99;101933.09;3600354;39;20091;-63
2023/01/31 10:24:08;;;;;;;14.43;5.75;;;;;;;7.91;71.78;101913.53;3610278;39;20386;-63
2023/01/31 10:26:41;;;;;;;16.15;6.18;;;;;;;7.84;72.28;101902.16;3606888;39;20052;-63
2023/01/31 10:29:26;;;;;;;16.27;6.05;;;;;;;7.95;72.06;101914.28;3605054;39;20073;-63
2023/01/31 10:32:17;;;;;;;17.08;6.47;;;;;;;7.93;72.06;101919.72;3606596;39;20054;-63
2023/01/31 10:34:58;;;;;;;18.27;6.72;;;;;;;7.88;72.11;101922.53;3605822;39;20055;-63
2023/01/31 10:37:47;;;;;;;16.25;7.03;;;;;;;7.87;72.17;101938.66;3597170;39;20066;-63
2023/01/31 10:40:25;;;;;;;16.25;7.20;;;;;;;7.83;73.22;101932.53;3604700;39;20056;-63
2023/01/31 10:42:59;;;;;;;25.27;8.45;;;;;;;7.80;72.99;101935.31;3607996;39;20051;-63
2023/01/31 10:45:29;;;;;;;16.33;7.85;;;;;;;7.82;73.47;101940.59;3606598;39;20443;-63
2023/01/31 10:48:25;;;;;;;19.35;8.00;;;;;;;7.93;73.14;101916.13;3606638;39;20057;-63
2023/01/31 10:51:15;;;;;;;19.15;9.25;;;;;;;8.05;73.03;101921.09;3610472;39;20050;-63
2023/01/31 10:54:04;;;;;;;21.10;8.48;;;;;;;8.10;72.50;101911.97;3598576;39;20395;-63
2023/01/31 10:56:41;;;;;;;17.90;8.85;;;;;;;8.15;73.09;101903.81;3607689;39;20055;-63
2023/01/31 10:59:28;;;;;;;20.95;9.38;;;;;;;8.13;72.41;101894.94;3608033;39;20104;-63
2023/01/31 11:01:54;;;;;;;20.05;9.60;;;;;;;8.10;72.29;101903.94;3606834;39;20047;-63
2023/01/31 11:04:40;;;;;;;18.95;9.20;;;;;;;8.16;72.95;101908.22;3608207;39;20110;-63
2023/01/31 11:07:07;;;;;;;18.40;8.57;;;;;;;8.20;72.86;101899.16;3606795;39;20079;-63
2023/01/31 11:09:42;;;;;;;20.50;8.93;;;;;;;8.22;72.33;101894.63;3607372;39;20389;-63
2023/01/31 11:12:08;;;;;;;17.33;9.05;;;;;;;8.28;73.03;101905.13;3606640;39;20120;-63
2023/01/31 11:14:35;;;;;;;18.05;9.40;;;;;;;8.26;72.50;101904.28;3607354;39;20059;-63
2023/01/31 11:17:13;;;;;;;16.05;8.70;;;;;;;8.29;72.67;101877.41;3605747;39;20072;-62
2023/01/31 11:19:54;;;;;;;19.30;8.75;;;;;;;8.35;72.84;101869.16;3606120;39;20056;-66
2023/01/31 11:22:36;;;;;;;17.80;8.98;;;;;;;8.42;72.73;101877.88;3605952;39;20061;-63
2023/01/31 11:25:05;;;;;;;19.30;8.68;;;;;;;8.47;72.10;101872.31;3607645;39;20047;-63
2023/01/31 11:27:41;;;;;;;23.73;8.80;;;;;;;8.56;72.15;101863.94;3608113;39;20095;-63
2023/01/31 11:30:21;;;;;;;18.83;8.98;;;;;;;8.56;72.41;101859.50;3605798;39;20087;-63
2023/01/31 11:32:48;;;;;;;19.92;8.75;;;;;;;8.62;72.27;101854.81;3605454;39;20072;-63
2023/01/31 11:35:13;;;;;;;16.90;9.20;;;;;;;8.67;71.75;101858.22;3604530;39;20058;-63
2023/01/31 11:37:59;;;;;;;19.30;9.60;;;;;;;8.66;71.28;101849.31;3604096;39;20055;-63
2023/01/31 11:40:34;;;;;;;21.67;8.82;;;;;;;8.66;71.73;101853.75;3607631;39;20177;-62
2023/01/31 11:43:03;;;;;;;20.88;9.40;;;;;;;8.69;71.75;101859.00;3608410;39;20340;-63
2023/01/31 11:45:44;;;;;;;15.18;7.90;;;;;;;8.67;72.00;101858.22;3610678;39;20375;-62
2023/01/31 11:48:40;;;;;;;17.52;7.72;;;;;;;8.73;72.26;101856.19;3606064;39;20067;-63
2023/01/31 11:51:06;;;;;;;18.15;8.27;;;;;;;8.75;71.37;101843.59;3607939;39;20321;-65
2023/01/31 11:53:53;;;;;;;19.45;7.68;;;;;;;8.78;70.96;101847.94;3609083;39;20055;-63
2023/01/31 11:56:36;;;;;;;17.38;7.18;;;;;;;8.75;71.70;101846.28;3605356;39;20070;-63
2023/01/31 11:59:08;;;;;;;15.13;7.18;;;;;;;8.71;71.68;101839.25;3607539;39;20326;-62